Thunder radar more information blitzortung!


Radar de pluja more information rain snow radar


Visita la nostra xarxa de llocs de meteo:

Template documentation
and downloads

And another site



No particular awareness of the weather is required.    There are no Weather-warnings

Pagina Historial Weather Underground text

Diari Resum Juny 8, 2017 Unitats:  Tant    Imperial   Mètric
« Previous Dia
SegĂźent Dia »
Diari Setmana Mensual Anual Personalitzada
  Maxima: Minima: Media:
Temperatura: TemperatureC °F /  -17.8 °C 16.9 °F /  -8.4 °C 23.5 °F /  -4.7 °C
Punt de rosada: DewpointC °F /  -17.8 °C 13.4 °F /  -10.3 °C 15.4 °F /  -9.2 °C
Humitat: Humidity % 49 % 61 %
Wind Speed: WindSpeedKMH mph /  0 km/h - 8.4 mph /  13.5 km/h
RĂ fegues de vent: WindSpeedGustKMH mph /  0 km/h - -
Vent:- - SW
Pression baro: PressurehPa in /  0 hPa 1013.8 in /  34327.3 hPa -
Precipitacions: 0.0 in /  0 mm    
Historical Graphs
 
 
Dades de taula per Juny 8, 2017
Temps Temperatura Punt de rosada Pression baro Vent Wind Speed RĂ fegues de vent Humitat Rainfall Rate (Hourly)
TemperatureC °F /  -17.8 °C DewpointC °F /  -17.8 °C PressurehPa in /  0 hPa Calm     Humidity % HourlyPrecipMM in /  0 mm
00:03 17.8 °F /  -7.9 °C 13.7 °F /  -10.2 °C 1019.9 in /  34533.8 hPa SW 3.7 mph /  6 km/h 3.7 mph /  6 km/h 77 % 0.0 in /  0 mm
01:45 17.8 °F /  -7.9 °C 14.5 °F /  -9.7 °C 1019.9 in /  34533.8 hPa WSW 1.6 mph /  2.6 km/h 3.2 mph /  5.1 km/h 81 % 0.0 in /  0 mm
01:55 17.7 °F /  -7.9 °C 14.4 °F /  -9.8 °C 1019.9 in /  34533.8 hPa SW 1.6 mph /  2.6 km/h 3.2 mph /  5.1 km/h 81 % 0.0 in /  0 mm
02:05 17.8 °F /  -7.9 °C 14.7 °F /  -9.6 °C 1019.9 in /  34533.8 hPa Calm   3.2 mph /  5.1 km/h 82 % 0.0 in /  0 mm
02:15 17.8 °F /  -7.9 °C 14.7 °F /  -9.6 °C 1019.9 in /  34533.8 hPa Calm     82 % 0.0 in /  0 mm
02:25 18.0 °F /  -7.8 °C 14.9 °F /  -9.5 °C 1019.9 in /  34533.8 hPa Calm     82 % 0.0 in /  0 mm
02:35 18.1 °F /  -7.7 °C 15.0 °F /  -9.4 °C 1019.9 in /  34533.8 hPa WSW 1.6 mph /  2.6 km/h 3.2 mph /  5.1 km/h 82 % 0.0 in /  0 mm
02:45 18.2 °F /  -7.7 °C 14.9 °F /  -9.5 °C 1019.9 in /  34533.8 hPa Calm   3.2 mph /  5.1 km/h 81 % 0.0 in /  0 mm
02:55 18.4 °F /  -7.6 °C 14.9 °F /  -9.5 °C 1019.9 in /  34533.8 hPa WSW 1.6 mph /  2.6 km/h 3.2 mph /  5.1 km/h 80 % 0.0 in /  0 mm
03:05 18.7 °F /  -7.4 °C 15.0 °F /  -9.4 °C 1019.9 in /  34533.8 hPa SW 1.6 mph /  2.6 km/h 3.2 mph /  5.1 km/h 79 % 0.0 in /  0 mm
03:15 19.2 °F /  -7.1 °C 15.1 °F /  -9.4 °C 1019.9 in /  34533.8 hPa WSW 1.6 mph /  2.6 km/h 4.8 mph /  7.7 km/h 77 % 0.0 in /  0 mm
03:25 19.5 °F /  -6.9 °C 15.2 °F /  -9.3 °C 1019.9 in /  34533.8 hPa West 3.2 mph /  5.1 km/h 4.8 mph /  7.7 km/h 76 % 0.0 in /  0 mm
03:35 19.4 °F /  -7 °C 14.8 °F /  -9.6 °C 1019.9 in /  34533.8 hPa WSW 1.6 mph /  2.6 km/h 4.8 mph /  7.7 km/h 75 % 0.0 in /  0 mm
03:45 20.2 °F /  -6.6 °C 15.2 °F /  -9.3 °C 1019.9 in /  34533.8 hPa SW 1.6 mph /  2.6 km/h 3.2 mph /  5.1 km/h 73 % 0.0 in /  0 mm
03:55 21.0 °F /  -6.1 °C 15.8 °F /  -9 °C 1018.8 in /  34496.6 hPa WSW 1.6 mph /  2.6 km/h 3.2 mph /  5.1 km/h 72 % 0.0 in /  0 mm
04:05 20.7 °F /  -6.3 °C 15.1 °F /  -9.4 °C 1018.8 in /  34496.6 hPa NE 1.6 mph /  2.6 km/h 6.4 mph /  10.3 km/h 70 % 0.0 in /  0 mm
04:15 21.1 °F /  -6.1 °C 15.4 °F /  -9.2 °C 1018.8 in /  34496.6 hPa NNE 1.6 mph /  2.6 km/h 6.4 mph /  10.3 km/h 70 % 0.0 in /  0 mm
04:25 21.8 °F /  -5.7 °C 15.6 °F /  -9.1 °C 1019.9 in /  34533.8 hPa NW 3.2 mph /  5.1 km/h 4.8 mph /  7.7 km/h 68 % 0.0 in /  0 mm
04:35 22.4 °F /  -5.3 °C 15.7 °F /  -9.1 °C 1019.9 in /  34533.8 hPa NNW 1.6 mph /  2.6 km/h 4.8 mph /  7.7 km/h 66 % 0.0 in /  0 mm
04:45 22.7 °F /  -5.2 °C 16.0 °F /  -8.9 °C 1019.9 in /  34533.8 hPa WNW 1.6 mph /  2.6 km/h 6.4 mph /  10.3 km/h 66 % 0.0 in /  0 mm
04:55 22.2 °F /  -5.4 °C 15.3 °F /  -9.3 °C 1018.8 in /  34496.6 hPa WSW 4.8 mph /  7.7 km/h 6.4 mph /  10.3 km/h 65 % 0.0 in /  0 mm
05:05 22.8 °F /  -5.1 °C 15.9 °F /  -8.9 °C 1018.8 in /  34496.6 hPa WSW 3.2 mph /  5.1 km/h 9.7 mph /  15.6 km/h 65 % 0.0 in /  0 mm
05:15 23.2 °F /  -4.9 °C 16.0 °F /  -8.9 °C 1018.8 in /  34496.6 hPa SW 4.8 mph /  7.7 km/h 8.0 mph /  12.9 km/h 64 % 0.0 in /  0 mm
05:25 23.0 °F /  -5 °C 15.8 °F /  -9 °C 1019.9 in /  34533.8 hPa SW 4.8 mph /  7.7 km/h 11.3 mph /  18.2 km/h 64 % 0.0 in /  0 mm
05:35 23.2 °F /  -4.9 °C 15.8 °F /  -9 °C 1019.9 in /  34533.8 hPa SW 3.2 mph /  5.1 km/h 12.9 mph /  20.8 km/h 63 % 0.0 in /  0 mm
05:45 23.4 °F /  -4.8 °C 15.9 °F /  -8.9 °C 1019.9 in /  34533.8 hPa SSW 4.8 mph /  7.7 km/h 11.3 mph /  18.2 km/h 63 % 0.0 in /  0 mm
10:50 23.6 °F /  -4.7 °C 16.2 °F /  -8.8 °C 1018.8 in /  34496.6 hPa SW 9.3 mph /  15 km/h 9.3 mph /  15 km/h 63 % 0.0 in /  0 mm
10:55 23.2 °F /  -4.9 °C 15.8 °F /  -9 °C 1018.8 in /  34496.6 hPa SW 11.1 mph /  17.9 km/h 11.1 mph /  17.9 km/h 63 % 0.0 in /  0 mm
11:00 23.6 °F /  -4.7 °C 16.4 °F /  -8.7 °C 1018.8 in /  34496.6 hPa SSW 5.6 mph /  9 km/h 5.6 mph /  9 km/h 64 % 0.0 in /  0 mm
11:05 23.9 °F /  -4.5 °C 16.4 °F /  -8.7 °C 1018.8 in /  34496.6 hPa SSW 3.7 mph /  6 km/h 3.7 mph /  6 km/h 63 % 0.0 in /  0 mm
11:10 23.9 °F /  -4.5 °C 16.2 °F /  -8.8 °C 1018.8 in /  34496.6 hPa SSW 9.5 mph /  15.3 km/h 9.5 mph /  15.3 km/h 62 % 0.0 in /  0 mm
11:15 24.4 °F /  -4.2 °C 16.7 °F /  -8.5 °C 1018.8 in /  34496.6 hPa SSW 7.4 mph /  11.9 km/h 7.4 mph /  11.9 km/h 62 % 0.0 in /  0 mm
11:20 24.3 °F /  -4.3 °C 16.6 °F /  -8.6 °C 1018.8 in /  34496.6 hPa SW 14.8 mph /  23.8 km/h 14.8 mph /  23.8 km/h 62 % 0.0 in /  0 mm
11:25 24.7 °F /  -4.1 °C 16.7 °F /  -8.5 °C 1018.8 in /  34496.6 hPa WSW 9.3 mph /  15 km/h 9.3 mph /  15 km/h 61 % 0.0 in /  0 mm
11:30 25.1 °F /  -3.8 °C 16.5 °F /  -8.6 °C 1018.8 in /  34496.6 hPa SSW 11.1 mph /  17.9 km/h 11.1 mph /  17.9 km/h 59 % 0.0 in /  0 mm
11:35 24.8 °F /  -4 °C 16.5 °F /  -8.6 °C 1018.8 in /  34496.6 hPa WSW 14.8 mph /  23.8 km/h 14.8 mph /  23.8 km/h 60 % 0.0 in /  0 mm
11:40 25.1 °F /  -3.8 °C 16.5 °F /  -8.6 °C 1018.8 in /  34496.6 hPa SW 5.6 mph /  9 km/h 5.6 mph /  9 km/h 59 % 0.0 in /  0 mm
11:45 25.6 °F /  -3.6 °C 17.0 °F /  -8.3 °C 1018.8 in /  34496.6 hPa SW 9.3 mph /  15 km/h 9.3 mph /  15 km/h 59 % 0.0 in /  0 mm
11:50 25.8 °F /  -3.4 °C 16.9 °F /  -8.4 °C 1018.8 in /  34496.6 hPa SW 9.3 mph /  15 km/h 9.3 mph /  15 km/h 58 % 0.0 in /  0 mm
11:55 25.6 °F /  -3.6 °C 16.7 °F /  -8.5 °C 1018.8 in /  34496.6 hPa SW 12.6 mph /  20.3 km/h 12.6 mph /  20.3 km/h 58 % 0.0 in /  0 mm
12:00 25.9 °F /  -3.4 °C 16.7 °F /  -8.5 °C 1018.8 in /  34496.6 hPa SSW 9.3 mph /  15 km/h 9.3 mph /  15 km/h 57 % 0.0 in /  0 mm
12:05 25.7 °F /  -3.5 °C 16.6 °F /  -8.6 °C 1018.8 in /  34496.6 hPa SSW 11.1 mph /  17.9 km/h 11.1 mph /  17.9 km/h 57 % 0.0 in /  0 mm
12:06 25.7 °F /  -3.5 °C 16.6 °F /  -8.6 °C 1018.8 in /  34496.6 hPa SSW 13.0 mph /  20.9 km/h 13.0 mph /  20.9 km/h 57 % 0.0 in /  0 mm
12:11 26.0 °F /  -3.3 °C 16.8 °F /  -8.4 °C 1018.8 in /  34496.6 hPa South 9.3 mph /  15 km/h 9.3 mph /  15 km/h 57 % 0.0 in /  0 mm
12:16 25.9 °F /  -3.4 °C 16.7 °F /  -8.5 °C 1018.8 in /  34496.6 hPa WSW 8.7 mph /  14 km/h 8.7 mph /  14 km/h 57 % 0.0 in /  0 mm
12:18 26.0 °F /  -3.3 °C 16.8 °F /  -8.4 °C 1018.8 in /  34496.6 hPa SSW 7.4 mph /  11.9 km/h 7.4 mph /  11.9 km/h 57 % 0.0 in /  0 mm
12:28 26.5 °F /  -3.1 °C 16.7 °F /  -8.5 °C 1018.8 in /  34496.6 hPa SE 5.6 mph /  9 km/h 5.6 mph /  9 km/h 55 % 0.0 in /  0 mm
12:33 26.5 °F /  -3.1 °C 16.7 °F /  -8.5 °C 1018.8 in /  34496.6 hPa South 5.6 mph /  9 km/h 5.6 mph /  9 km/h 55 % 0.0 in /  0 mm
12:38 26.9 °F /  -2.8 °C 17.1 °F /  -8.3 °C 1018.8 in /  34496.6 hPa SW 5.6 mph /  9 km/h 5.6 mph /  9 km/h 55 % 0.0 in /  0 mm
12:43 26.4 °F /  -3.1 °C 16.6 °F /  -8.6 °C 1018.8 in /  34496.6 hPa SW 9.3 mph /  15 km/h 9.3 mph /  15 km/h 55 % 0.0 in /  0 mm
12:48 25.9 °F /  -3.4 °C 16.2 °F /  -8.8 °C 1018.8 in /  34496.6 hPa SW 11.1 mph /  17.9 km/h 11.1 mph /  17.9 km/h 55 % 0.0 in /  0 mm
12:53 26.0 °F /  -3.3 °C 16.3 °F /  -8.7 °C 1018.8 in /  34496.6 hPa South 14.8 mph /  23.8 km/h 14.8 mph /  23.8 km/h 55 % 0.0 in /  0 mm
12:58 26.0 °F /  -3.3 °C 16.3 °F /  -8.7 °C 1018.8 in /  34496.6 hPa SW 11.1 mph /  17.9 km/h 11.1 mph /  17.9 km/h 55 % 0.0 in /  0 mm
13:03 26.2 °F /  -3.2 °C 16.4 °F /  -8.7 °C 1017.8 in /  34462.7 hPa WSW 13.0 mph /  20.9 km/h 13.0 mph /  20.9 km/h 55 % 0.0 in /  0 mm
13:08 26.4 °F /  -3.1 °C 16.6 °F /  -8.6 °C 1017.8 in /  34462.7 hPa South 13.0 mph /  20.9 km/h 13.0 mph /  20.9 km/h 55 % 0.0 in /  0 mm
13:13 26.8 °F /  -2.9 °C 16.7 °F /  -8.5 °C 1017.8 in /  34462.7 hPa SSW 9.0 mph /  14.5 km/h 9.0 mph /  14.5 km/h 54 % 0.0 in /  0 mm
13:18 27.2 °F /  -2.7 °C 17.1 °F /  -8.3 °C 1017.8 in /  34462.7 hPa SSW 7.4 mph /  11.9 km/h 7.4 mph /  11.9 km/h 54 % 0.0 in /  0 mm
13:23 27.5 °F /  -2.5 °C 17.1 °F /  -8.3 °C 1017.8 in /  34462.7 hPa SSE 7.4 mph /  11.9 km/h 7.4 mph /  11.9 km/h 53 % 0.0 in /  0 mm
13:28 27.3 °F /  -2.6 °C 16.9 °F /  -8.4 °C 1017.8 in /  34462.7 hPa SW 13.0 mph /  20.9 km/h 13.0 mph /  20.9 km/h 53 % 0.0 in /  0 mm
13:33 27.1 °F /  -2.7 °C 16.4 °F /  -8.7 °C 1018.8 in /  34496.6 hPa SSW 14.8 mph /  23.8 km/h 14.8 mph /  23.8 km/h 52 % 0.0 in /  0 mm
13:38 26.9 °F /  -2.8 °C 16.5 °F /  -8.6 °C 1018.8 in /  34496.6 hPa SW 13.0 mph /  20.9 km/h 13.0 mph /  20.9 km/h 53 % 0.0 in /  0 mm
13:43 27.2 °F /  -2.7 °C 16.2 °F /  -8.8 °C 1018.8 in /  34496.6 hPa South 7.4 mph /  11.9 km/h 7.4 mph /  11.9 km/h 51 % 0.0 in /  0 mm
13:48 27.9 °F /  -2.3 °C 17.1 °F /  -8.3 °C 1017.8 in /  34462.7 hPa SW 7.9 mph /  12.7 km/h 7.9 mph /  12.7 km/h 52 % 0.0 in /  0 mm
13:53 27.5 °F /  -2.5 °C 16.4 °F /  -8.7 °C 1017.8 in /  34462.7 hPa WSW 11.1 mph /  17.9 km/h 11.1 mph /  17.9 km/h 51 % 0.0 in /  0 mm
13:58 27.5 °F /  -2.5 °C 16.8 °F /  -8.4 °C 1017.8 in /  34462.7 hPa SW 9.3 mph /  15 km/h 9.3 mph /  15 km/h 52 % 0.0 in /  0 mm
13:59 27.6 °F /  -2.4 °C 16.6 °F /  -8.6 °C 1017.8 in /  34462.7 hPa South 11.4 mph /  18.3 km/h 11.4 mph /  18.3 km/h 51 % 0.0 in /  0 mm
14:04 27.5 °F /  -2.5 °C 16.4 °F /  -8.7 °C 1017.8 in /  34462.7 hPa WSW 11.1 mph /  17.9 km/h 11.1 mph /  17.9 km/h 51 % 0.0 in /  0 mm
14:09 27.1 °F /  -2.7 °C 16.1 °F /  -8.8 °C 1017.8 in /  34462.7 hPa SW 7.4 mph /  11.9 km/h 7.4 mph /  11.9 km/h 51 % 0.0 in /  0 mm
14:14 28.0 °F /  -2.2 °C 16.9 °F /  -8.4 °C 1017.8 in /  34462.7 hPa SE 7.4 mph /  11.9 km/h 7.4 mph /  11.9 km/h 51 % 0.0 in /  0 mm
14:19 28.3 °F /  -2.1 °C 17.2 °F /  -8.2 °C 1017.8 in /  34462.7 hPa SSW 9.3 mph /  15 km/h 9.3 mph /  15 km/h 51 % 0.0 in /  0 mm
14:24 27.9 °F /  -2.3 °C 16.8 °F /  -8.4 °C 1017.8 in /  34462.7 hPa SSW 9.3 mph /  15 km/h 9.3 mph /  15 km/h 51 % 0.0 in /  0 mm
14:29 28.2 °F /  -2.1 °C 17.1 °F /  -8.3 °C 1017.8 in /  34462.7 hPa SSW 10.3 mph /  16.6 km/h 10.3 mph /  16.6 km/h 51 % 0.0 in /  0 mm
14:34 28.1 °F /  -2.2 °C 17.0 °F /  -8.3 °C 1017.8 in /  34462.7 hPa SSE 11.1 mph /  17.9 km/h 11.1 mph /  17.9 km/h 51 % 0.0 in /  0 mm
14:39 27.6 °F /  -2.4 °C 16.6 °F /  -8.6 °C 1017.8 in /  34462.7 hPa South 11.1 mph /  17.9 km/h 11.1 mph /  17.9 km/h 51 % 0.0 in /  0 mm
14:44 27.5 °F /  -2.5 °C 16.4 °F /  -8.7 °C 1017.8 in /  34462.7 hPa South 16.7 mph /  26.9 km/h 16.7 mph /  26.9 km/h 51 % 0.0 in /  0 mm
14:49 27.8 °F /  -2.3 °C 16.7 °F /  -8.5 °C 1016.8 in /  34428.8 hPa SW 12.2 mph /  19.6 km/h 12.2 mph /  19.6 km/h 51 % 0.0 in /  0 mm
14:54 27.5 °F /  -2.5 °C 16.2 °F /  -8.8 °C 1016.8 in /  34428.8 hPa SW 13.0 mph /  20.9 km/h 13.0 mph /  20.9 km/h 50 % 0.0 in /  0 mm
14:59 27.7 °F /  -2.4 °C 16.7 °F /  -8.5 °C 1016.8 in /  34428.8 hPa WSW 13.0 mph /  20.9 km/h 13.0 mph /  20.9 km/h 51 % 0.0 in /  0 mm
15:04 28.1 °F /  -2.2 °C 16.7 °F /  -8.5 °C 1017.8 in /  34462.7 hPa South 9.3 mph /  15 km/h 9.3 mph /  15 km/h 50 % 0.0 in /  0 mm
15:09 28.1 °F /  -2.2 °C 16.7 °F /  -8.5 °C 1017.8 in /  34462.7 hPa SW 13.0 mph /  20.9 km/h 13.0 mph /  20.9 km/h 50 % 0.0 in /  0 mm
15:14 28.0 °F /  -2.2 °C 16.6 °F /  -8.6 °C 1017.8 in /  34462.7 hPa WSW 10.0 mph /  16.1 km/h 10.0 mph /  16.1 km/h 50 % 0.0 in /  0 mm
15:19 28.3 °F /  -2.1 °C 17.2 °F /  -8.2 °C 1016.8 in /  34428.8 hPa WSW 9.3 mph /  15 km/h 9.3 mph /  15 km/h 51 % 0.0 in /  0 mm
15:24 28.6 °F /  -1.9 °C 17.2 °F /  -8.2 °C 1016.8 in /  34428.8 hPa SW 9.7 mph /  15.6 km/h 9.7 mph /  15.6 km/h 50 % 0.0 in /  0 mm
15:29 28.8 °F /  -1.8 °C 17.7 °F /  -7.9 °C 1016.8 in /  34428.8 hPa SSW 13.0 mph /  20.9 km/h 13.0 mph /  20.9 km/h 51 % 0.0 in /  0 mm
15:34 28.8 °F /  -1.8 °C 17.7 °F /  -7.9 °C 1016.8 in /  34428.8 hPa SW 15.6 mph /  25.1 km/h 15.6 mph /  25.1 km/h 51 % 0.0 in /  0 mm
15:39 28.2 °F /  -2.1 °C 16.8 °F /  -8.4 °C 1016.8 in /  34428.8 hPa SSW 11.1 mph /  17.9 km/h 11.1 mph /  17.9 km/h 50 % 0.0 in /  0 mm
15:44 28.3 °F /  -2.1 °C 16.9 °F /  -8.4 °C 1016.8 in /  34428.8 hPa SW 13.0 mph /  20.9 km/h 13.0 mph /  20.9 km/h 50 % 0.0 in /  0 mm
15:49 29.0 °F /  -1.7 °C 17.2 °F /  -8.2 °C 1016.8 in /  34428.8 hPa SW 10.0 mph /  16.1 km/h 10.0 mph /  16.1 km/h 49 % 0.0 in /  0 mm
15:54 28.7 °F /  -1.8 °C 17.2 °F /  -8.2 °C 1016.8 in /  34428.8 hPa WSW 9.3 mph /  15 km/h 9.3 mph /  15 km/h 50 % 0.0 in /  0 mm
15:59 28.1 °F /  -2.2 °C 16.7 °F /  -8.5 °C 1016.8 in /  34428.8 hPa SW 9.3 mph /  15 km/h 9.3 mph /  15 km/h 50 % 0.0 in /  0 mm
16:04 27.9 °F /  -2.3 °C 16.5 °F /  -8.6 °C 1016.8 in /  34428.8 hPa SW 15.6 mph /  25.1 km/h 15.6 mph /  25.1 km/h 50 % 0.0 in /  0 mm
16:09 27.9 °F /  -2.3 °C 16.8 °F /  -8.4 °C 1016.8 in /  34428.8 hPa ESE 9.3 mph /  15 km/h 9.3 mph /  15 km/h 51 % 0.0 in /  0 mm
16:14 28.1 °F /  -2.2 °C 16.7 °F /  -8.5 °C 1016.8 in /  34428.8 hPa WSW 18.5 mph /  29.8 km/h 18.5 mph /  29.8 km/h 50 % 0.0 in /  0 mm
16:19 28.4 °F /  -2 °C 17.0 °F /  -8.3 °C 1015.8 in /  34395 hPa WSW 9.3 mph /  15 km/h 9.3 mph /  15 km/h 50 % 0.0 in /  0 mm
16:24 27.5 °F /  -2.5 °C 16.2 °F /  -8.8 °C 1015.8 in /  34395 hPa WSW 16.7 mph /  26.9 km/h 16.7 mph /  26.9 km/h 50 % 0.0 in /  0 mm
16:29 27.6 °F /  -2.4 °C 16.6 °F /  -8.6 °C 1015.8 in /  34395 hPa SW 12.6 mph /  20.3 km/h 12.6 mph /  20.3 km/h 51 % 0.0 in /  0 mm
16:34 27.5 °F /  -2.5 °C 16.4 °F /  -8.7 °C 1015.8 in /  34395 hPa SW 20.4 mph /  32.8 km/h 20.4 mph /  32.8 km/h 51 % 0.0 in /  0 mm
16:39 27.0 °F /  -2.8 °C 16.0 °F /  -8.9 °C 1015.8 in /  34395 hPa South 14.8 mph /  23.8 km/h 14.8 mph /  23.8 km/h 51 % 0.0 in /  0 mm
16:44 27.2 °F /  -2.7 °C 16.2 °F /  -8.8 °C 1015.8 in /  34395 hPa SSE 9.3 mph /  15 km/h 9.3 mph /  15 km/h 51 % 0.0 in /  0 mm
16:49 27.0 °F /  -2.8 °C 16.0 °F /  -8.9 °C 1015.8 in /  34395 hPa SSW 13.0 mph /  20.9 km/h 13.7 mph /  22 km/h 51 % 0.0 in /  0 mm
16:54 27.1 °F /  -2.7 °C 16.4 °F /  -8.7 °C 1015.8 in /  34395 hPa SSW 11.1 mph /  17.9 km/h 11.1 mph /  17.9 km/h 52 % 0.0 in /  0 mm
16:59 27.6 °F /  -2.4 °C 16.6 °F /  -8.6 °C 1015.8 in /  34395 hPa SW 9.3 mph /  15 km/h 9.3 mph /  15 km/h 51 % 0.0 in /  0 mm
17:04 27.2 °F /  -2.7 °C 16.2 °F /  -8.8 °C 1015.8 in /  34395 hPa SSW 17.2 mph /  27.7 km/h 17.2 mph /  27.7 km/h 51 % 0.0 in /  0 mm
17:09 26.9 °F /  -2.8 °C 16.2 °F /  -8.8 °C 1015.8 in /  34395 hPa SW 16.7 mph /  26.9 km/h 16.7 mph /  26.9 km/h 52 % 0.0 in /  0 mm
17:14 27.1 °F /  -2.7 °C 16.1 °F /  -8.8 °C 1015.8 in /  34395 hPa West 14.8 mph /  23.8 km/h 14.8 mph /  23.8 km/h 51 % 0.0 in /  0 mm
17:19 27.4 °F /  -2.6 °C 16.7 °F /  -8.5 °C 1016.8 in /  34428.8 hPa SSW 16.9 mph /  27.2 km/h 16.9 mph /  27.2 km/h 52 % 0.0 in /  0 mm
17:24 26.9 °F /  -2.8 °C 16.5 °F /  -8.6 °C 1016.8 in /  34428.8 hPa SSW 14.8 mph /  23.8 km/h 14.8 mph /  23.8 km/h 53 % 0.0 in /  0 mm
17:29 27.0 °F /  -2.8 °C 16.0 °F /  -8.9 °C 1016.8 in /  34428.8 hPa SW 14.8 mph /  23.8 km/h 14.8 mph /  23.8 km/h 51 % 0.0 in /  0 mm
17:34 26.8 °F /  -2.9 °C 16.1 °F /  -8.8 °C 1015.8 in /  34395 hPa SW 11.1 mph /  17.9 km/h 11.1 mph /  17.9 km/h 52 % 0.0 in /  0 mm
17:39 27.0 °F /  -2.8 °C 16.0 °F /  -8.9 °C 1015.8 in /  34395 hPa SW 13.0 mph /  20.9 km/h 13.0 mph /  20.9 km/h 51 % 0.0 in /  0 mm
17:44 26.5 °F /  -3.1 °C 15.8 °F /  -9 °C 1015.8 in /  34395 hPa SW 11.1 mph /  17.9 km/h 11.1 mph /  17.9 km/h 52 % 0.0 in /  0 mm
17:49 27.0 °F /  -2.8 °C 16.3 °F /  -8.7 °C 1015.8 in /  34395 hPa SW 9.3 mph /  15 km/h 9.3 mph /  15 km/h 52 % 0.0 in /  0 mm
17:54 26.6 °F /  -3 °C 15.9 °F /  -8.9 °C 1015.8 in /  34395 hPa SW 12.2 mph /  19.6 km/h 12.2 mph /  19.6 km/h 52 % 0.0 in /  0 mm
17:59 26.9 °F /  -2.8 °C 16.2 °F /  -8.8 °C 1015.8 in /  34395 hPa SW 11.1 mph /  17.9 km/h 11.1 mph /  17.9 km/h 52 % 0.0 in /  0 mm
18:04 27.2 °F /  -2.7 °C 16.5 °F /  -8.6 °C 1014.8 in /  34361.1 hPa WSW 7.4 mph /  11.9 km/h 7.4 mph /  11.9 km/h 52 % 0.0 in /  0 mm
18:09 27.2 °F /  -2.7 °C 16.2 °F /  -8.8 °C 1014.8 in /  34361.1 hPa South 13.0 mph /  20.9 km/h 13.0 mph /  20.9 km/h 51 % 0.0 in /  0 mm
18:19 26.4 °F /  -3.1 °C 15.8 °F /  -9 °C 1015.8 in /  34395 hPa SSW 13.0 mph /  20.9 km/h 13.0 mph /  20.9 km/h 52 % 0.0 in /  0 mm
18:24 26.5 °F /  -3.1 °C 15.8 °F /  -9 °C 1015.8 in /  34395 hPa South 7.4 mph /  11.9 km/h 7.4 mph /  11.9 km/h 52 % 0.0 in /  0 mm
18:29 26.5 °F /  -3.1 °C 15.8 °F /  -9 °C 1015.8 in /  34395 hPa WSW 11.1 mph /  17.9 km/h 11.1 mph /  17.9 km/h 52 % 0.0 in /  0 mm
18:34 26.1 °F /  -3.3 °C 15.5 °F /  -9.2 °C 1014.8 in /  34361.1 hPa SW 13.0 mph /  20.9 km/h 13.0 mph /  20.9 km/h 52 % 0.0 in /  0 mm
18:39 26.3 °F /  -3.2 °C 15.7 °F /  -9.1 °C 1014.8 in /  34361.1 hPa West 12.6 mph /  20.3 km/h 12.6 mph /  20.3 km/h 52 % 0.0 in /  0 mm
18:44 26.3 °F /  -3.2 °C 15.7 °F /  -9.1 °C 1014.8 in /  34361.1 hPa SSW 9.5 mph /  15.3 km/h 9.5 mph /  15.3 km/h 52 % 0.0 in /  0 mm
18:49 26.2 °F /  -3.2 °C 15.6 °F /  -9.1 °C 1014.8 in /  34361.1 hPa SW 3.7 mph /  6 km/h 4.7 mph /  7.6 km/h 52 % 0.0 in /  0 mm
18:54 25.9 °F /  -3.4 °C 15.3 °F /  -9.3 °C 1014.8 in /  34361.1 hPa SW 14.8 mph /  23.8 km/h 14.8 mph /  23.8 km/h 52 % 0.0 in /  0 mm
18:59 26.0 °F /  -3.3 °C 15.4 °F /  -9.2 °C 1014.8 in /  34361.1 hPa SW 5.6 mph /  9 km/h 5.6 mph /  9 km/h 52 % 0.0 in /  0 mm
19:04 26.2 °F /  -3.2 °C 15.6 °F /  -9.1 °C 1014.8 in /  34361.1 hPa WSW 5.8 mph /  9.3 km/h 5.8 mph /  9.3 km/h 52 % 0.0 in /  0 mm
19:09 26.0 °F /  -3.3 °C 15.4 °F /  -9.2 °C 1014.8 in /  34361.1 hPa SW 9.3 mph /  15 km/h 9.3 mph /  15 km/h 52 % 0.0 in /  0 mm
19:14 25.4 °F /  -3.7 °C 14.5 °F /  -9.7 °C 1014.8 in /  34361.1 hPa SW 11.1 mph /  17.9 km/h 11.1 mph /  17.9 km/h 51 % 0.0 in /  0 mm
19:15 25.4 °F /  -3.7 °C 14.8 °F /  -9.6 °C 1014.8 in /  34361.1 hPa SSW 9.3 mph /  15 km/h 9.3 mph /  15 km/h 52 % 0.0 in /  0 mm
19:20 25.3 °F /  -3.7 °C 14.7 °F /  -9.6 °C 1013.8 in /  34327.3 hPa WSW 7.4 mph /  11.9 km/h 7.4 mph /  11.9 km/h 52 % 0.0 in /  0 mm
19:25 25.2 °F /  -3.8 °C 14.7 °F /  -9.6 °C 1013.8 in /  34327.3 hPa SSW 9.3 mph /  15 km/h 9.3 mph /  15 km/h 52 % 0.0 in /  0 mm
19:30 24.9 °F /  -3.9 °C 14.7 °F /  -9.6 °C 1013.8 in /  34327.3 hPa SW 10.8 mph /  17.4 km/h 10.8 mph /  17.4 km/h 53 % 0.0 in /  0 mm
19:35 25.0 °F /  -3.9 °C 14.4 °F /  -9.8 °C 1013.8 in /  34327.3 hPa SSW 13.0 mph /  20.9 km/h 13.0 mph /  20.9 km/h 52 % 0.0 in /  0 mm
19:40 24.9 °F /  -3.9 °C 14.7 °F /  -9.6 °C 1013.8 in /  34327.3 hPa South 9.5 mph /  15.3 km/h 9.5 mph /  15.3 km/h 53 % 0.0 in /  0 mm
19:45 24.5 °F /  -4.2 °C 14.6 °F /  -9.7 °C 1013.8 in /  34327.3 hPa SE 13.0 mph /  20.9 km/h 13.0 mph /  20.9 km/h 54 % 0.0 in /  0 mm
19:50 24.3 °F /  -4.3 °C 14.4 °F /  -9.8 °C 1013.8 in /  34327.3 hPa WSW 13.7 mph /  22 km/h 13.7 mph /  22 km/h 54 % 0.0 in /  0 mm
19:55 24.0 °F /  -4.4 °C 14.4 °F /  -9.8 °C 1013.8 in /  34327.3 hPa SW 9.3 mph /  15 km/h 9.3 mph /  15 km/h 55 % 0.0 in /  0 mm
20:00 24.0 °F /  -4.4 °C 14.4 °F /  -9.8 °C 1013.8 in /  34327.3 hPa SW 10.3 mph /  16.6 km/h 10.3 mph /  16.6 km/h 55 % 0.0 in /  0 mm
20:05 23.8 °F /  -4.6 °C 14.5 °F /  -9.7 °C 1013.8 in /  34327.3 hPa WSW 11.4 mph /  18.3 km/h 11.4 mph /  18.3 km/h 56 % 0.0 in /  0 mm
20:10 23.6 °F /  -4.7 °C 14.3 °F /  -9.8 °C 1013.8 in /  34327.3 hPa WSW 5.6 mph /  9 km/h 5.6 mph /  9 km/h 56 % 0.0 in /  0 mm
20:15 23.4 °F /  -4.8 °C 14.1 °F /  -9.9 °C 1013.8 in /  34327.3 hPa WSW 12.2 mph /  19.6 km/h 12.2 mph /  19.6 km/h 56 % 0.0 in /  0 mm
20:20 23.1 °F /  -4.9 °C 14.1 °F /  -9.9 °C 1013.8 in /  34327.3 hPa South 11.1 mph /  17.9 km/h 11.1 mph /  17.9 km/h 57 % 0.0 in /  0 mm
20:25 22.8 °F /  -5.1 °C 13.8 °F /  -10.1 °C 1013.8 in /  34327.3 hPa SW 9.3 mph /  15 km/h 9.3 mph /  15 km/h 57 % 0.0 in /  0 mm
20:30 22.6 °F /  -5.2 °C 13.9 °F /  -10.1 °C 1013.8 in /  34327.3 hPa SSW 10.0 mph /  16.1 km/h 10.0 mph /  16.1 km/h 58 % 0.0 in /  0 mm
20:35 22.3 °F /  -5.4 °C 13.6 °F /  -10.2 °C 1013.8 in /  34327.3 hPa SW 13.0 mph /  20.9 km/h 13.0 mph /  20.9 km/h 58 % 0.0 in /  0 mm
20:40 22.2 °F /  -5.4 °C 13.8 °F /  -10.1 °C 1013.8 in /  34327.3 hPa WSW 7.9 mph /  12.7 km/h 7.9 mph /  12.7 km/h 59 % 0.0 in /  0 mm
20:45 22.0 °F /  -5.6 °C 13.6 °F /  -10.2 °C 1013.8 in /  34327.3 hPa WSW 11.1 mph /  17.9 km/h 11.1 mph /  17.9 km/h 59 % 0.0 in /  0 mm
20:50 21.8 °F /  -5.7 °C 13.7 °F /  -10.2 °C 1013.8 in /  34327.3 hPa SW 14.8 mph /  23.8 km/h 14.8 mph /  23.8 km/h 60 % 0.0 in /  0 mm
20:55 21.7 °F /  -5.7 °C 13.8 °F /  -10.1 °C 1013.8 in /  34327.3 hPa WSW 9.3 mph /  15 km/h 9.3 mph /  15 km/h 61 % 0.0 in /  0 mm
21:00 21.5 °F /  -5.8 °C 13.7 °F /  -10.2 °C 1013.8 in /  34327.3 hPa SW 5.6 mph /  9 km/h 5.8 mph /  9.3 km/h 61 % 0.0 in /  0 mm
21:05 21.4 °F /  -5.9 °C 13.8 °F /  -10.1 °C 1013.8 in /  34327.3 hPa West 9.3 mph /  15 km/h 9.3 mph /  15 km/h 62 % 0.0 in /  0 mm
21:06 21.4 °F /  -5.9 °C 13.8 °F /  -10.1 °C 1013.8 in /  34327.3 hPa SW 9.3 mph /  15 km/h 9.3 mph /  15 km/h 62 % 0.0 in /  0 mm
21:11 21.2 °F /  -6 °C 13.6 °F /  -10.2 °C 1013.8 in /  34327.3 hPa WSW 8.7 mph /  14 km/h 8.7 mph /  14 km/h 62 % 0.0 in /  0 mm
21:15 18.2 °F /  -7.7 °C 15.1 °F /  -9.4 °C 1015.8 in /  34395 hPa Calm   1.6 mph /  2.6 km/h 82 % 0.0 in /  0 mm
21:16 21.0 °F /  -6.1 °C 13.4 °F /  -10.3 °C 1013.8 in /  34327.3 hPa SW 9.3 mph /  15 km/h 9.3 mph /  15 km/h 62 % 0.0 in /  0 mm
21:21 20.9 °F /  -6.2 °C 13.6 °F /  -10.2 °C 1013.8 in /  34327.3 hPa WSW 11.1 mph /  17.9 km/h 11.1 mph /  17.9 km/h 63 % 0.0 in /  0 mm
21:25 18.3 °F /  -7.6 °C 15.2 °F /  -9.3 °C 1016.8 in /  34428.8 hPa WSW 1.6 mph /  2.6 km/h 4.8 mph /  7.7 km/h 82 % 0.0 in /  0 mm
21:26 20.7 °F /  -6.3 °C 13.4 °F /  -10.3 °C 1013.8 in /  34327.3 hPa SSW 9.3 mph /  15 km/h 9.3 mph /  15 km/h 63 % 0.0 in /  0 mm
21:31 20.6 °F /  -6.3 °C 13.6 °F /  -10.2 °C 1013.8 in /  34327.3 hPa SW 13.7 mph /  22 km/h 13.7 mph /  22 km/h 64 % 0.0 in /  0 mm
21:35 18.2 °F /  -7.7 °C 15.1 °F /  -9.4 °C 1015.8 in /  34395 hPa West 1.6 mph /  2.6 km/h 3.2 mph /  5.1 km/h 82 % 0.0 in /  0 mm
21:36 20.4 °F /  -6.4 °C 13.6 °F /  -10.2 °C 1013.8 in /  34327.3 hPa SSW 7.4 mph /  11.9 km/h 7.4 mph /  11.9 km/h 65 % 0.0 in /  0 mm
21:41 20.3 °F /  -6.5 °C 13.7 °F /  -10.2 °C 1013.8 in /  34327.3 hPa WSW 11.1 mph /  17.9 km/h 11.1 mph /  17.9 km/h 66 % 0.0 in /  0 mm
21:45 18.3 °F /  -7.6 °C 15.0 °F /  -9.4 °C 1015.8 in /  34395 hPa West 4.8 mph /  7.7 km/h 4.8 mph /  7.7 km/h 81 % 0.0 in /  0 mm
21:46 20.2 °F /  -6.6 °C 13.7 °F /  -10.2 °C 1013.8 in /  34327.3 hPa SW 9.3 mph /  15 km/h 9.3 mph /  15 km/h 66 % 0.0 in /  0 mm
21:51 20.1 °F /  -6.6 °C 13.8 °F /  -10.1 °C 1014.8 in /  34361.1 hPa SSW 10.0 mph /  16.1 km/h 10.0 mph /  16.1 km/h 67 % 0.0 in /  0 mm
21:55 18.3 °F /  -7.6 °C 15.0 °F /  -9.4 °C 1016.8 in /  34428.8 hPa West 3.2 mph /  5.1 km/h 4.8 mph /  7.7 km/h 81 % 0.0 in /  0 mm
21:56 20.0 °F /  -6.7 °C 13.7 °F /  -10.2 °C 1014.8 in /  34361.1 hPa SW 7.4 mph /  11.9 km/h 7.4 mph /  11.9 km/h 67 % 0.0 in /  0 mm
22:01 20.0 °F /  -6.7 °C 13.9 °F /  -10.1 °C 1014.8 in /  34361.1 hPa SW 7.4 mph /  11.9 km/h 7.4 mph /  11.9 km/h 68 % 0.0 in /  0 mm
22:05 18.3 °F /  -7.6 °C 15.2 °F /  -9.3 °C 1016.8 in /  34428.8 hPa WSW 1.6 mph /  2.6 km/h 4.8 mph /  7.7 km/h 82 % 0.0 in /  0 mm
22:06 19.9 °F /  -6.7 °C 14.3 °F /  -9.8 °C 1014.8 in /  34361.1 hPa SW 9.3 mph /  15 km/h 9.3 mph /  15 km/h 70 % 0.0 in /  0 mm
22:11 19.8 °F /  -6.8 °C 14.4 °F /  -9.8 °C 1014.8 in /  34361.1 hPa SW 11.1 mph /  17.9 km/h 11.1 mph /  17.9 km/h 71 % 0.0 in /  0 mm
22:15 18.2 °F /  -7.7 °C 14.9 °F /  -9.5 °C 1016.8 in /  34428.8 hPa WSW 1.6 mph /  2.6 km/h 3.2 mph /  5.1 km/h 81 % 0.0 in /  0 mm
22:16 19.7 °F /  -6.8 °C 14.3 °F /  -9.8 °C 1014.8 in /  34361.1 hPa SW 7.4 mph /  11.9 km/h 7.4 mph /  11.9 km/h 71 % 0.0 in /  0 mm
22:25 18.0 °F /  -7.8 °C 14.7 °F /  -9.6 °C 1015.8 in /  34395 hPa Calm     81 % 0.0 in /  0 mm
22:26 19.5 °F /  -6.9 °C 14.3 °F /  -9.8 °C 1015.8 in /  34395 hPa SW 5.6 mph /  9 km/h 5.6 mph /  9 km/h 72 % 0.0 in /  0 mm
22:31 19.4 °F /  -7 °C 14.2 °F /  -9.9 °C 1015.8 in /  34395 hPa SSW 5.0 mph /  8 km/h 5.3 mph /  8.5 km/h 72 % 0.0 in /  0 mm
22:35 17.8 °F /  -7.9 °C 14.7 °F /  -9.6 °C 1015.8 in /  34395 hPa Calm   4.8 mph /  7.7 km/h 82 % 0.0 in /  0 mm
22:36 19.3 °F /  -7.1 °C 14.3 °F /  -9.8 °C 1014.8 in /  34361.1 hPa West 5.6 mph /  9 km/h 5.6 mph /  9 km/h 73 % 0.0 in /  0 mm
22:41 19.2 °F /  -7.1 °C 14.2 °F /  -9.9 °C 1014.8 in /  34361.1 hPa WSW 7.9 mph /  12.7 km/h 7.9 mph /  12.7 km/h 73 % 0.0 in /  0 mm
22:45 17.6 °F /  -8 °C 14.5 °F /  -9.7 °C 1015.8 in /  34395 hPa SW 3.2 mph /  5.1 km/h 3.2 mph /  5.1 km/h 82 % 0.0 in /  0 mm
22:46 19.1 °F /  -7.2 °C 14.3 °F /  -9.8 °C 1014.8 in /  34361.1 hPa SW 6.4 mph /  10.3 km/h 6.4 mph /  10.3 km/h 74 % 0.0 in /  0 mm
22:51 19.1 °F /  -7.2 °C 14.3 °F /  -9.8 °C 1015.8 in /  34395 hPa WSW 7.4 mph /  11.9 km/h 7.4 mph /  11.9 km/h 74 % 0.0 in /  0 mm
22:55 17.4 °F /  -8.1 °C 14.5 °F /  -9.7 °C 1015.8 in /  34395 hPa Calm     83 % 0.0 in /  0 mm
22:56 19.0 °F /  -7.2 °C 14.3 °F /  -9.8 °C 1015.8 in /  34395 hPa SW 7.4 mph /  11.9 km/h 7.4 mph /  11.9 km/h 74 % 0.0 in /  0 mm
23:01 19.0 °F /  -7.2 °C 14.4 °F /  -9.8 °C 1015.8 in /  34395 hPa SW 7.4 mph /  11.9 km/h 7.4 mph /  11.9 km/h 75 % 0.0 in /  0 mm
23:05 17.4 °F /  -8.1 °C 14.5 °F /  -9.7 °C 1015.8 in /  34395 hPa WSW 3.2 mph /  5.1 km/h 3.2 mph /  5.1 km/h 83 % 0.0 in /  0 mm
23:06 18.9 °F /  -7.3 °C 14.6 °F /  -9.7 °C 1014.8 in /  34361.1 hPa SW 3.7 mph /  6 km/h 5.0 mph /  8 km/h 76 % 0.0 in /  0 mm
23:11 18.9 °F /  -7.3 °C 14.8 °F /  -9.6 °C 1014.8 in /  34361.1 hPa South 5.6 mph /  9 km/h 5.6 mph /  9 km/h 77 % 0.0 in /  0 mm
23:15 17.2 °F /  -8.2 °C 14.3 °F /  -9.8 °C 1015.8 in /  34395 hPa Calm   1.6 mph /  2.6 km/h 83 % 0.0 in /  0 mm
23:16 18.8 °F /  -7.3 °C 14.7 °F /  -9.6 °C 1014.8 in /  34361.1 hPa SSW 4.2 mph /  6.8 km/h 4.2 mph /  6.8 km/h 77 % 0.0 in /  0 mm
23:21 18.7 °F /  -7.4 °C 14.6 °F /  -9.7 °C 1015.8 in /  34395 hPa SSW 3.7 mph /  6 km/h 3.7 mph /  6 km/h 77 % 0.0 in /  0 mm
23:25 17.1 °F /  -8.3 °C 14.2 °F /  -9.9 °C 1015.8 in /  34395 hPa Calm   3.2 mph /  5.1 km/h 83 % 0.0 in /  0 mm
23:26 18.7 °F /  -7.4 °C 14.6 °F /  -9.7 °C 1015.8 in /  34395 hPa SSW 5.6 mph /  9 km/h 5.6 mph /  9 km/h 77 % 0.0 in /  0 mm
23:31 18.6 °F /  -7.4 °C 14.5 °F /  -9.7 °C 1015.8 in /  34395 hPa South 7.4 mph /  11.9 km/h 7.4 mph /  11.9 km/h 77 % 0.0 in /  0 mm
23:35 16.9 °F /  -8.4 °C 14.2 °F /  -9.9 °C 1015.8 in /  34395 hPa SW 1.6 mph /  2.6 km/h 4.8 mph /  7.7 km/h 84 % 0.0 in /  0 mm
23:36 18.6 °F /  -7.4 °C 14.5 °F /  -9.7 °C 1015.8 in /  34395 hPa SW 7.4 mph /  11.9 km/h 7.4 mph /  11.9 km/h 77 % 0.0 in /  0 mm
23:41 18.5 °F /  -7.5 °C 14.6 °F /  -9.7 °C 1015.8 in /  34395 hPa SW 7.4 mph /  11.9 km/h 7.4 mph /  11.9 km/h 78 % 0.0 in /  0 mm
23:45 17.0 °F /  -8.3 °C 13.9 °F /  -10.1 °C 1015.8 in /  34395 hPa WSW 3.2 mph /  5.1 km/h 3.2 mph /  5.1 km/h 82 % 0.0 in /  0 mm
23:46 18.5 °F /  -7.5 °C 14.6 °F /  -9.7 °C 1015.8 in /  34395 hPa WSW 7.4 mph /  11.9 km/h 7.4 mph /  11.9 km/h 78 % 0.0 in /  0 mm
23:51 18.4 °F /  -7.6 °C 14.5 °F /  -9.7 °C 1015.8 in /  34395 hPa SW 7.4 mph /  11.9 km/h 7.4 mph /  11.9 km/h 78 % 0.0 in /  0 mm
23:55 17.1 °F /  -8.3 °C 14.0 °F /  -10 °C 1015.8 in /  34395 hPa WSW 3.2 mph /  5.1 km/h 4.8 mph /  7.7 km/h 82 % 0.0 in /  0 mm
23:56 18.4 °F /  -7.6 °C 14.5 °F /  -9.7 °C 1015.8 in /  34395 hPa SW 5.6 mph /  9 km/h 5.6 mph /  9 km/h 78 % 0.0 in /  0 mm
Meteo Sesrovires
Elogis d' Weather Underground - 1.5 mb

Guio original per  Jim McMurry - jmcmurry@mwt.net Adaptat per a la plantilla per  Wim van der Kuil - Leuven-Template.eu

Trobareu la nostra informacio del temps tambe a:

Weather Underground

AWEKAS